sensor_id;sensor_type;location;lat;lon;timestamp;temperature;humidity
30308;DHT22;17114;52.314;8.910;2023-05-17T00:01:46;7.80;99.90
30308;DHT22;17114;52.314;8.910;2023-05-17T00:04:12;8.10;99.90
30308;DHT22;17114;52.314;8.910;2023-05-17T00:06:39;7.90;99.90
30308;DHT22;17114;52.314;8.910;2023-05-17T00:09:07;7.90;99.90
30308;DHT22;17114;52.314;8.910;2023-05-17T00:11:34;8.00;99.90
30308;DHT22;17114;52.314;8.910;2023-05-17T00:14:01;8.10;99.90
30308;DHT22;17114;52.314;8.910;2023-05-17T00:16:28;8.00;99.90
30308;DHT22;17114;52.314;8.910;2023-05-17T00:18:55;8.10;99.90
30308;DHT22;17114;52.314;8.910;2023-05-17T00:21:22;8.20;99.90
30308;DHT22;17114;52.314;8.910;2023-05-17T00:23:49;8.20;99.90
30308;DHT22;17114;52.314;8.910;2023-05-17T00:26:16;8.20;99.90
30308;DHT22;17114;52.314;8.910;2023-05-17T00:28:43;8.30;99.90
30308;DHT22;17114;52.314;8.910;2023-05-17T00:31:10;8.30;99.90
30308;DHT22;17114;52.314;8.910;2023-05-17T00:33:37;8.20;99.90
30308;DHT22;17114;52.314;8.910;2023-05-17T00:36:04;8.20;99.90
30308;DHT22;17114;52.314;8.910;2023-05-17T00:38:31;8.20;99.90
30308;DHT22;17114;52.314;8.910;2023-05-17T00:40:58;8.20;99.90
30308;DHT22;17114;52.314;8.910;2023-05-17T00:43:26;8.10;99.90
30308;DHT22;17114;52.314;8.910;2023-05-17T00:45:53;8.20;99.90
30308;DHT22;17114;52.314;8.910;2023-05-17T00:48:20;8.10;99.90
30308;DHT22;17114;52.314;8.910;2023-05-17T00:50:47;8.10;99.90
30308;DHT22;17114;52.314;8.910;2023-05-17T00:53:14;8.20;99.90
30308;DHT22;17114;52.314;8.910;2023-05-17T00:55:42;8.20;99.90
30308;DHT22;17114;52.314;8.910;2023-05-17T00:58:11;8.20;99.90
30308;DHT22;17114;52.314;8.910;2023-05-17T01:00:38;8.20;99.90
30308;DHT22;17114;52.314;8.910;2023-05-17T01:03:06;8.10;99.90
30308;DHT22;17114;52.314;8.910;2023-05-17T01:05:35;8.20;99.90
30308;DHT22;17114;52.314;8.910;2023-05-17T01:08:02;8.10;99.90
30308;DHT22;17114;52.314;8.910;2023-05-17T01:10:39;8.00;99.90
30308;DHT22;17114;52.314;8.910;2023-05-17T01:13:13;8.10;99.90
30308;DHT22;17114;52.314;8.910;2023-05-17T01:15:45;7.90;99.90
30308;DHT22;17114;52.314;8.910;2023-05-17T01:19:15;7.90;99.90
30308;DHT22;17114;52.314;8.910;2023-05-17T01:27:18;7.80;99.90
30308;DHT22;17114;52.314;8.910;2023-05-17T01:29:47;7.80;99.90
30308;DHT22;17114;52.314;8.910;2023-05-17T01:32:15;7.70;99.90
30308;DHT22;17114;52.314;8.910;2023-05-17T01:34:42;7.70;99.90
30308;DHT22;17114;52.314;8.910;2023-05-17T01:37:09;7.60;99.90
30308;DHT22;17114;52.314;8.910;2023-05-17T01:39:36;7.80;99.90
30308;DHT22;17114;52.314;8.910;2023-05-17T01:42:15;7.70;99.90
30308;DHT22;17114;52.314;8.910;2023-05-17T01:50:02;7.80;99.90
30308;DHT22;17114;52.314;8.910;2023-05-17T01:52:31;7.90;99.90
30308;DHT22;17114;52.314;8.910;2023-05-17T01:55:09;8.00;99.90
30308;DHT22;17114;52.314;8.910;2023-05-17T01:57:42;8.00;99.90
30308;DHT22;17114;52.314;8.910;2023-05-17T02:00:10;8.10;99.90
30308;DHT22;17114;52.314;8.910;2023-05-17T02:02:38;8.10;99.90
30308;DHT22;17114;52.314;8.910;2023-05-17T02:05:05;8.10;99.90
30308;DHT22;17114;52.314;8.910;2023-05-17T02:07:32;8.10;99.90
30308;DHT22;17114;52.314;8.910;2023-05-17T02:09:59;8.10;99.90
30308;DHT22;17114;52.314;8.910;2023-05-17T02:12:26;8.10;99.90
30308;DHT22;17114;52.314;8.910;2023-05-17T02:14:53;8.00;99.90
30308;DHT22;17114;52.314;8.910;2023-05-17T02:17:20;8.00;99.90
30308;DHT22;17114;52.314;8.910;2023-05-17T02:19:48;7.90;99.90
30308;DHT22;17114;52.314;8.910;2023-05-17T02:22:15;7.90;99.90
30308;DHT22;17114;52.314;8.910;2023-05-17T02:24:42;7.80;99.90
30308;DHT22;17114;52.314;8.910;2023-05-17T02:27:09;7.80;99.90
30308;DHT22;17114;52.314;8.910;2023-05-17T02:29:36;7.80;99.90
30308;DHT22;17114;52.314;8.910;2023-05-17T02:32:04;7.80;99.90
30308;DHT22;17114;52.314;8.910;2023-05-17T02:34:31;7.80;99.90
30308;DHT22;17114;52.314;8.910;2023-05-17T02:36:58;7.80;99.90
30308;DHT22;17114;52.314;8.910;2023-05-17T02:39:25;7.80;99.90
30308;DHT22;17114;52.314;8.910;2023-05-17T02:41:52;7.80;99.90
30308;DHT22;17114;52.314;8.910;2023-05-17T02:44:19;7.90;99.90
30308;DHT22;17114;52.314;8.910;2023-05-17T02:46:46;7.90;99.90
30308;DHT22;17114;52.314;8.910;2023-05-17T02:49:13;7.80;99.90
30308;DHT22;17114;52.314;8.910;2023-05-17T02:51:40;7.80;99.90
30308;DHT22;17114;52.314;8.910;2023-05-17T02:54:07;7.80;99.90
30308;DHT22;17114;52.314;8.910;2023-05-17T02:56:34;7.70;99.90
30308;DHT22;17114;52.314;8.910;2023-05-17T02:59:01;7.60;99.90
30308;DHT22;17114;52.314;8.910;2023-05-17T03:01:28;7.60;99.90
30308;DHT22;17114;52.314;8.910;2023-05-17T03:03:55;7.50;99.90
30308;DHT22;17114;52.314;8.910;2023-05-17T03:06:22;7.50;99.90
30308;DHT22;17114;52.314;8.910;2023-05-17T03:08:49;7.50;99.90
30308;DHT22;17114;52.314;8.910;2023-05-17T03:11:16;7.40;99.90
30308;DHT22;17114;52.314;8.910;2023-05-17T03:13:43;7.40;99.90
30308;DHT22;17114;52.314;8.910;2023-05-17T03:16:12;7.40;99.90
30308;DHT22;17114;52.314;8.910;2023-05-17T03:18:39;7.30;99.90
30308;DHT22;17114;52.314;8.910;2023-05-17T03:21:06;7.20;99.90
30308;DHT22;17114;52.314;8.910;2023-05-17T03:23:33;7.20;99.90
30308;DHT22;17114;52.314;8.910;2023-05-17T03:26:04;7.10;99.90
30308;DHT22;17114;52.314;8.910;2023-05-17T03:28:30;7.00;99.90
30308;DHT22;17114;52.314;8.910;2023-05-17T03:30:58;7.00;99.90
30308;DHT22;17114;52.314;8.910;2023-05-17T03:33:25;7.00;99.90
30308;DHT22;17114;52.314;8.910;2023-05-17T03:35:52;6.90;99.90
30308;DHT22;17114;52.314;8.910;2023-05-17T03:38:19;6.90;99.90
30308;DHT22;17114;52.314;8.910;2023-05-17T03:40:46;6.90;99.90
30308;DHT22;17114;52.314;8.910;2023-05-17T03:43:13;6.90;99.90
30308;DHT22;17114;52.314;8.910;2023-05-17T03:45:40;6.90;99.90
30308;DHT22;17114;52.314;8.910;2023-05-17T03:48:06;7.00;99.90
30308;DHT22;17114;52.314;8.910;2023-05-17T03:50:33;7.00;99.90
30308;DHT22;17114;52.314;8.910;2023-05-17T03:53:00;7.00;99.90
30308;DHT22;17114;52.314;8.910;2023-05-17T03:55:27;7.00;99.90
30308;DHT22;17114;52.314;8.910;2023-05-17T03:57:55;7.00;99.90
30308;DHT22;17114;52.314;8.910;2023-05-17T04:00:22;7.20;99.90
30308;DHT22;17114;52.314;8.910;2023-05-17T04:02:50;7.20;99.90
30308;DHT22;17114;52.314;8.910;2023-05-17T04:05:18;7.10;99.90
30308;DHT22;17114;52.314;8.910;2023-05-17T04:07:45;7.10;99.90
30308;DHT22;17114;52.314;8.910;2023-05-17T04:10:12;7.20;99.90
30308;DHT22;17114;52.314;8.910;2023-05-17T04:12:39;7.30;99.90
30308;DHT22;17114;52.314;8.910;2023-05-17T04:15:06;7.30;99.90
30308;DHT22;17114;52.314;8.910;2023-05-17T04:17:33;7.30;99.90
30308;DHT22;17114;52.314;8.910;2023-05-17T04:20:01;7.30;99.90
30308;DHT22;17114;52.314;8.910;2023-05-17T04:22:28;7.50;99.90
30308;DHT22;17114;52.314;8.910;2023-05-17T04:24:54;7.60;99.90
30308;DHT22;17114;52.314;8.910;2023-05-17T04:27:21;7.70;99.90
30308;DHT22;17114;52.314;8.910;2023-05-17T04:29:48;8.00;99.90
30308;DHT22;17114;52.314;8.910;2023-05-17T04:32:16;8.20;99.90
30308;DHT22;17114;52.314;8.910;2023-05-17T04:34:44;8.60;99.90
30308;DHT22;17114;52.314;8.910;2023-05-17T04:37:11;8.90;99.90
30308;DHT22;17114;52.314;8.910;2023-05-17T04:39:38;9.30;99.90
30308;DHT22;17114;52.314;8.910;2023-05-17T04:42:05;9.70;99.90
30308;DHT22;17114;52.314;8.910;2023-05-17T04:44:32;10.10;99.90
30308;DHT22;17114;52.314;8.910;2023-05-17T04:46:59;10.40;99.90
30308;DHT22;17114;52.314;8.910;2023-05-17T04:49:26;10.40;99.90
30308;DHT22;17114;52.314;8.910;2023-05-17T04:51:52;10.80;99.90
30308;DHT22;17114;52.314;8.910;2023-05-17T04:54:19;11.00;99.90
30308;DHT22;17114;52.314;8.910;2023-05-17T04:56:46;11.10;99.90
30308;DHT22;17114;52.314;8.910;2023-05-17T04:59:13;11.10;99.90
30308;DHT22;17114;52.314;8.910;2023-05-17T05:01:40;10.90;99.90
30308;DHT22;17114;52.314;8.910;2023-05-17T05:04:07;10.70;99.90
30308;DHT22;17114;52.314;8.910;2023-05-17T05:06:34;10.60;99.90
30308;DHT22;17114;52.314;8.910;2023-05-17T05:09:01;10.70;99.90
30308;DHT22;17114;52.314;8.910;2023-05-17T05:11:28;10.80;99.90
30308;DHT22;17114;52.314;8.910;2023-05-17T05:13:55;10.70;99.90
30308;DHT22;17114;52.314;8.910;2023-05-17T05:16:23;10.70;99.90
30308;DHT22;17114;52.314;8.910;2023-05-17T05:18:50;10.90;99.90
30308;DHT22;17114;52.314;8.910;2023-05-17T05:21:17;10.90;99.90
30308;DHT22;17114;52.314;8.910;2023-05-17T05:23:44;11.00;99.90
30308;DHT22;17114;52.314;8.910;2023-05-17T05:26:11;11.20;99.90
30308;DHT22;17114;52.314;8.910;2023-05-17T05:28:38;11.30;99.90
30308;DHT22;17114;52.314;8.910;2023-05-17T05:31:05;11.70;99.90
30308;DHT22;17114;52.314;8.910;2023-05-17T05:33:31;12.00;99.90
30308;DHT22;17114;52.314;8.910;2023-05-17T05:35:58;12.00;99.90
30308;DHT22;17114;52.314;8.910;2023-05-17T05:38:25;12.10;99.90
30308;DHT22;17114;52.314;8.910;2023-05-17T05:40:52;12.30;99.90
30308;DHT22;17114;52.314;8.910;2023-05-17T05:43:19;12.10;99.90
30308;DHT22;17114;52.314;8.910;2023-05-17T05:45:46;12.20;99.90
30308;DHT22;17114;52.314;8.910;2023-05-17T05:48:13;12.30;99.90
30308;DHT22;17114;52.314;8.910;2023-05-17T05:50:42;12.40;99.90
30308;DHT22;17114;52.314;8.910;2023-05-17T05:53:12;12.70;99.90
30308;DHT22;17114;52.314;8.910;2023-05-17T05:55:45;12.60;99.90
30308;DHT22;17114;52.314;8.910;2023-05-17T05:58:12;12.40;99.90
30308;DHT22;17114;52.314;8.910;2023-05-17T06:00:39;12.50;99.90
30308;DHT22;17114;52.314;8.910;2023-05-17T06:03:05;12.70;99.90
30308;DHT22;17114;52.314;8.910;2023-05-17T06:05:33;12.80;99.90
30308;DHT22;17114;52.314;8.910;2023-05-17T06:08:00;13.00;99.90
30308;DHT22;17114;52.314;8.910;2023-05-17T06:10:27;12.30;99.90
30308;DHT22;17114;52.314;8.910;2023-05-17T06:12:54;11.80;99.90
30308;DHT22;17114;52.314;8.910;2023-05-17T06:15:21;11.70;99.90
30308;DHT22;17114;52.314;8.910;2023-05-17T06:17:48;11.90;99.90
30308;DHT22;17114;52.314;8.910;2023-05-17T06:20:15;12.10;99.90
30308;DHT22;17114;52.314;8.910;2023-05-17T06:22:43;12.10;99.90
30308;DHT22;17114;52.314;8.910;2023-05-17T06:25:10;12.10;99.90
30308;DHT22;17114;52.314;8.910;2023-05-17T06:27:37;11.90;99.90
30308;DHT22;17114;52.314;8.910;2023-05-17T06:30:04;11.80;99.90
30308;DHT22;17114;52.314;8.910;2023-05-17T06:32:33;12.20;99.90
30308;DHT22;17114;52.314;8.910;2023-05-17T06:35:00;12.80;99.90
30308;DHT22;17114;52.314;8.910;2023-05-17T06:37:27;13.40;99.90
30308;DHT22;17114;52.314;8.910;2023-05-17T06:40:02;13.30;99.90
30308;DHT22;17114;52.314;8.910;2023-05-17T06:42:42;13.10;99.90
30308;DHT22;17114;52.314;8.910;2023-05-17T06:45:09;12.60;99.90
30308;DHT22;17114;52.314;8.910;2023-05-17T06:47:39;12.90;99.90
30308;DHT22;17114;52.314;8.910;2023-05-17T06:50:07;13.20;99.90
30308;DHT22;17114;52.314;8.910;2023-05-17T06:52:35;13.90;99.90
30308;DHT22;17114;52.314;8.910;2023-05-17T06:55:02;14.30;99.90
30308;DHT22;17114;52.314;8.910;2023-05-17T06:57:29;14.30;99.90
30308;DHT22;17114;52.314;8.910;2023-05-17T06:59:56;14.10;99.90
30308;DHT22;17114;52.314;8.910;2023-05-17T07:02:23;14.00;99.90
30308;DHT22;17114;52.314;8.910;2023-05-17T07:04:50;14.50;99.90
30308;DHT22;17114;52.314;8.910;2023-05-17T07:07:17;14.70;99.90
30308;DHT22;17114;52.314;8.910;2023-05-17T07:09:45;15.00;99.90
30308;DHT22;17114;52.314;8.910;2023-05-17T07:12:14;15.30;99.90
30308;DHT22;17114;52.314;8.910;2023-05-17T07:14:41;15.70;99.90
30308;DHT22;17114;52.314;8.910;2023-05-17T07:17:10;16.00;99.90
30308;DHT22;17114;52.314;8.910;2023-05-17T07:19:37;15.80;99.90
30308;DHT22;17114;52.314;8.910;2023-05-17T07:22:04;15.80;99.90
30308;DHT22;17114;52.314;8.910;2023-05-17T07:24:31;16.30;99.90
30308;DHT22;17114;52.314;8.910;2023-05-17T07:26:58;16.50;99.90
30308;DHT22;17114;52.314;8.910;2023-05-17T07:29:25;16.50;99.90
30308;DHT22;17114;52.314;8.910;2023-05-17T07:31:52;16.40;99.90
30308;DHT22;17114;52.314;8.910;2023-05-17T07:34:19;16.30;99.90
30308;DHT22;17114;52.314;8.910;2023-05-17T07:36:46;16.60;99.90
30308;DHT22;17114;52.314;8.910;2023-05-17T07:39:13;16.80;99.90
30308;DHT22;17114;52.314;8.910;2023-05-17T07:41:40;16.90;99.90
30308;DHT22;17114;52.314;8.910;2023-05-17T07:44:07;15.90;99.90
30308;DHT22;17114;52.314;8.910;2023-05-17T07:46:34;15.20;99.90
30308;DHT22;17114;52.314;8.910;2023-05-17T07:49:02;15.30;99.90
30308;DHT22;17114;52.314;8.910;2023-05-17T07:51:29;15.30;99.90
30308;DHT22;17114;52.314;8.910;2023-05-17T07:53:57;15.80;99.90
30308;DHT22;17114;52.314;8.910;2023-05-17T07:56:24;16.20;99.90
30308;DHT22;17114;52.314;8.910;2023-05-17T07:58:51;15.70;99.90
30308;DHT22;17114;52.314;8.910;2023-05-17T08:01:18;15.60;99.90
30308;DHT22;17114;52.314;8.910;2023-05-17T08:03:45;15.30;99.90
30308;DHT22;17114;52.314;8.910;2023-05-17T08:06:16;14.90;99.90
30308;DHT22;17114;52.314;8.910;2023-05-17T08:08:43;14.20;99.90
30308;DHT22;17114;52.314;8.910;2023-05-17T08:11:11;13.80;99.90
30308;DHT22;17114;52.314;8.910;2023-05-17T08:13:39;13.30;99.90
30308;DHT22;17114;52.314;8.910;2023-05-17T08:16:06;13.40;99.90
30308;DHT22;17114;52.314;8.910;2023-05-17T08:18:41;13.60;99.90
30308;DHT22;17114;52.314;8.910;2023-05-17T08:21:09;13.50;99.90
30308;DHT22;17114;52.314;8.910;2023-05-17T08:23:37;13.30;99.90
30308;DHT22;17114;52.314;8.910;2023-05-17T08:26:04;13.00;99.90
30308;DHT22;17114;52.314;8.910;2023-05-17T08:28:31;12.90;99.90
30308;DHT22;17114;52.314;8.910;2023-05-17T08:30:58;12.90;99.90
30308;DHT22;17114;52.314;8.910;2023-05-17T08:33:25;12.70;99.90
30308;DHT22;17114;52.314;8.910;2023-05-17T08:35:53;12.90;99.90
30308;DHT22;17114;52.314;8.910;2023-05-17T08:38:21;13.10;99.90
30308;DHT22;17114;52.314;8.910;2023-05-17T08:40:55;13.40;99.90
30308;DHT22;17114;52.314;8.910;2023-05-17T08:43:22;13.60;99.90
30308;DHT22;17114;52.314;8.910;2023-05-17T08:45:53;13.60;99.90
30308;DHT22;17114;52.314;8.910;2023-05-17T08:48:27;13.50;99.90
30308;DHT22;17114;52.314;8.910;2023-05-17T08:50:57;13.70;99.90
30308;DHT22;17114;52.314;8.910;2023-05-17T08:53:25;13.90;99.90
30308;DHT22;17114;52.314;8.910;2023-05-17T08:55:57;13.80;99.90
30308;DHT22;17114;52.314;8.910;2023-05-17T08:58:30;13.50;99.90
30308;DHT22;17114;52.314;8.910;2023-05-17T09:01:18;13.40;99.90
30308;DHT22;17114;52.314;8.910;2023-05-17T09:03:46;13.00;99.90
30308;DHT22;17114;52.314;8.910;2023-05-17T09:06:20;13.00;99.90
30308;DHT22;17114;52.314;8.910;2023-05-17T09:08:49;13.00;99.90
30308;DHT22;17114;52.314;8.910;2023-05-17T09:11:27;13.90;99.90
30308;DHT22;17114;52.314;8.910;2023-05-17T09:14:02;15.00;99.90
30308;DHT22;17114;52.314;8.910;2023-05-17T09:16:32;15.80;99.90
30308;DHT22;17114;52.314;8.910;2023-05-17T09:19:01;16.40;99.90
30308;DHT22;17114;52.314;8.910;2023-05-17T09:21:30;16.70;99.90
30308;DHT22;17114;52.314;8.910;2023-05-17T09:23:58;16.30;99.90
30308;DHT22;17114;52.314;8.910;2023-05-17T09:26:41;16.00;99.90
30308;DHT22;17114;52.314;8.910;2023-05-17T09:29:12;15.20;99.90
30308;DHT22;17114;52.314;8.910;2023-05-17T09:31:41;14.60;99.90
30308;DHT22;17114;52.314;8.910;2023-05-17T09:34:09;14.20;99.90
30308;DHT22;17114;52.314;8.910;2023-05-17T09:36:37;14.10;99.90
30308;DHT22;17114;52.314;8.910;2023-05-17T09:39:05;13.90;99.90
30308;DHT22;17114;52.314;8.910;2023-05-17T09:41:55;13.40;99.90
30308;DHT22;17114;52.314;8.910;2023-05-17T09:44:24;13.20;99.90
30308;DHT22;17114;52.314;8.910;2023-05-17T09:46:51;14.00;99.90
30308;DHT22;17114;52.314;8.910;2023-05-17T09:49:19;15.10;99.90
30308;DHT22;17114;52.314;8.910;2023-05-17T09:51:49;15.60;99.90
30308;DHT22;17114;52.314;8.910;2023-05-17T09:54:17;15.10;99.90
30308;DHT22;17114;52.314;8.910;2023-05-17T09:56:52;14.70;99.90
30308;DHT22;17114;52.314;8.910;2023-05-17T09:59:21;14.30;99.90
30308;DHT22;17114;52.314;8.910;2023-05-17T10:01:49;13.80;99.90
30308;DHT22;17114;52.314;8.910;2023-05-17T10:04:17;13.40;99.90
30308;DHT22;17114;52.314;8.910;2023-05-17T10:06:50;13.20;99.90
30308;DHT22;17114;52.314;8.910;2023-05-17T10:09:21;13.00;99.90
30308;DHT22;17114;52.314;8.910;2023-05-17T10:11:51;13.00;99.90
30308;DHT22;17114;52.314;8.910;2023-05-17T10:14:29;13.10;99.90
30308;DHT22;17114;52.314;8.910;2023-05-17T10:16:59;13.80;99.90
30308;DHT22;17114;52.314;8.910;2023-05-17T10:19:29;14.50;99.90
30308;DHT22;17114;52.314;8.910;2023-05-17T10:21:57;14.40;99.90
30308;DHT22;17114;52.314;8.910;2023-05-17T10:24:37;14.70;99.90
30308;DHT22;17114;52.314;8.910;2023-05-17T10:27:05;15.30;99.90
30308;DHT22;17114;52.314;8.910;2023-05-17T10:29:37;15.80;99.90
30308;DHT22;17114;52.314;8.910;2023-05-17T10:32:05;15.70;99.90
30308;DHT22;17114;52.314;8.910;2023-05-17T10:34:37;14.90;99.90
30308;DHT22;17114;52.314;8.910;2023-05-17T10:37:05;14.30;99.90
30308;DHT22;17114;52.314;8.910;2023-05-17T10:39:34;13.90;99.90
30308;DHT22;17114;52.314;8.910;2023-05-17T10:42:06;13.90;99.90
30308;DHT22;17114;52.314;8.910;2023-05-17T10:44:41;13.70;99.90
30308;DHT22;17114;52.314;8.910;2023-05-17T10:47:09;13.50;99.90
30308;DHT22;17114;52.314;8.910;2023-05-17T10:49:37;13.50;99.90
30308;DHT22;17114;52.314;8.910;2023-05-17T10:52:17;13.30;99.90
30308;DHT22;17114;52.314;8.910;2023-05-17T10:54:48;13.50;99.90
30308;DHT22;17114;52.314;8.910;2023-05-17T10:57:35;13.40;99.90
30308;DHT22;17114;52.314;8.910;2023-05-17T11:00:06;13.40;99.90
30308;DHT22;17114;52.314;8.910;2023-05-17T11:02:39;13.30;99.90
30308;DHT22;17114;52.314;8.910;2023-05-17T11:05:06;13.20;99.90
30308;DHT22;17114;52.314;8.910;2023-05-17T11:07:48;13.30;99.90
30308;DHT22;17114;52.314;8.910;2023-05-17T11:10:15;13.70;99.90
30308;DHT22;17114;52.314;8.910;2023-05-17T11:12:44;14.60;99.90
30308;DHT22;17114;52.314;8.910;2023-05-17T11:15:15;15.50;99.90
30308;DHT22;17114;52.314;8.910;2023-05-17T11:20:30;16.40;99.90
30308;DHT22;17114;52.314;8.910;2023-05-17T11:23:03;16.20;99.90
30308;DHT22;17114;52.314;8.910;2023-05-17T11:25:36;16.40;99.90
30308;DHT22;17114;52.314;8.910;2023-05-17T11:28:08;16.40;99.90
30308;DHT22;17114;52.314;8.910;2023-05-17T11:30:40;16.80;99.90
30308;DHT22;17114;52.314;8.910;2023-05-17T11:33:08;16.80;99.90
30308;DHT22;17114;52.314;8.910;2023-05-17T11:35:53;16.60;99.90
30308;DHT22;17114;52.314;8.910;2023-05-17T11:38:22;15.80;99.90
30308;DHT22;17114;52.314;8.910;2023-05-17T11:40:54;15.40;99.90
30308;DHT22;17114;52.314;8.910;2023-05-17T11:43:25;15.10;99.90
30308;DHT22;17114;52.314;8.910;2023-05-17T11:45:57;15.00;99.90
30308;DHT22;17114;52.314;8.910;2023-05-17T11:48:29;14.70;99.90
30308;DHT22;17114;52.314;8.910;2023-05-17T11:50:56;14.20;99.90
30308;DHT22;17114;52.314;8.910;2023-05-17T11:53:27;13.90;99.90
30308;DHT22;17114;52.314;8.910;2023-05-17T11:55:56;13.60;99.90
30308;DHT22;17114;52.314;8.910;2023-05-17T11:58:27;13.50;99.90
30308;DHT22;17114;52.314;8.910;2023-05-17T12:00:56;13.30;99.90
30308;DHT22;17114;52.314;8.910;2023-05-17T12:03:25;13.50;99.90
30308;DHT22;17114;52.314;8.910;2023-05-17T12:06:11;14.30;99.90
30308;DHT22;17114;52.314;8.910;2023-05-17T12:08:45;15.20;99.90
30308;DHT22;17114;52.314;8.910;2023-05-17T12:11:16;15.90;99.90
30308;DHT22;17114;52.314;8.910;2023-05-17T12:13:44;15.60;99.90
30308;DHT22;17114;52.314;8.910;2023-05-17T12:16:15;15.00;99.90
30308;DHT22;17114;52.314;8.910;2023-05-17T12:18:47;14.70;99.90
30308;DHT22;17114;52.314;8.910;2023-05-17T12:21:16;14.60;99.90
30308;DHT22;17114;52.314;8.910;2023-05-17T12:23:46;14.50;99.90
30308;DHT22;17114;52.314;8.910;2023-05-17T12:26:18;14.50;99.90
30308;DHT22;17114;52.314;8.910;2023-05-17T12:28:57;14.40;99.90
30308;DHT22;17114;52.314;8.910;2023-05-17T12:33:56;14.40;99.90
30308;DHT22;17114;52.314;8.910;2023-05-17T12:36:27;14.80;99.90
30308;DHT22;17114;52.314;8.910;2023-05-17T12:38:55;15.50;99.90
30308;DHT22;17114;52.314;8.910;2023-05-17T12:41:24;15.90;99.90
30308;DHT22;17114;52.314;8.910;2023-05-17T12:43:52;15.60;99.90
30308;DHT22;17114;52.314;8.910;2023-05-17T12:46:39;15.30;99.90
30308;DHT22;17114;52.314;8.910;2023-05-17T12:49:07;14.90;99.90
30308;DHT22;17114;52.314;8.910;2023-05-17T12:51:44;14.80;99.90
30308;DHT22;17114;52.314;8.910;2023-05-17T12:54:26;14.80;99.90
30308;DHT22;17114;52.314;8.910;2023-05-17T12:56:53;14.60;99.90
30308;DHT22;17114;52.314;8.910;2023-05-17T12:59:21;14.70;99.90
30308;DHT22;17114;52.314;8.910;2023-05-17T13:01:55;15.20;99.90
30308;DHT22;17114;52.314;8.910;2023-05-17T13:04:30;15.80;99.90
30308;DHT22;17114;52.314;8.910;2023-05-17T13:07:00;15.80;99.90
30308;DHT22;17114;52.314;8.910;2023-05-17T13:09:29;15.50;99.90
30308;DHT22;17114;52.314;8.910;2023-05-17T13:12:04;15.50;99.90
30308;DHT22;17114;52.314;8.910;2023-05-17T13:14:36;15.70;99.90
30308;DHT22;17114;52.314;8.910;2023-05-17T13:19:41;15.70;99.90
30308;DHT22;17114;52.314;8.910;2023-05-17T13:22:09;15.30;99.90
30308;DHT22;17114;52.314;8.910;2023-05-17T13:24:37;14.90;99.90
30308;DHT22;17114;52.314;8.910;2023-05-17T13:27:06;14.60;99.90
30308;DHT22;17114;52.314;8.910;2023-05-17T13:29:35;14.50;99.90
30308;DHT22;17114;52.314;8.910;2023-05-17T13:32:07;14.40;99.90
30308;DHT22;17114;52.314;8.910;2023-05-17T13:34:35;14.20;99.90
30308;DHT22;17114;52.314;8.910;2023-05-17T13:37:03;14.20;99.90
30308;DHT22;17114;52.314;8.910;2023-05-17T13:39:32;14.00;99.90
30308;DHT22;17114;52.314;8.910;2023-05-17T13:41:59;13.80;99.90
30308;DHT22;17114;52.314;8.910;2023-05-17T13:44:26;13.80;99.90
30308;DHT22;17114;52.314;8.910;2023-05-17T13:46:53;14.00;99.90
30308;DHT22;17114;52.314;8.910;2023-05-17T13:49:20;14.00;99.90
30308;DHT22;17114;52.314;8.910;2023-05-17T13:51:47;14.00;99.90
30308;DHT22;17114;52.314;8.910;2023-05-17T13:54:15;14.00;99.90
30308;DHT22;17114;52.314;8.910;2023-05-17T13:56:42;14.10;99.90
30308;DHT22;17114;52.314;8.910;2023-05-17T13:59:09;14.30;99.90
30308;DHT22;17114;52.314;8.910;2023-05-17T14:01:36;14.60;99.90
30308;DHT22;17114;52.314;8.910;2023-05-17T14:04:03;14.70;99.90
30308;DHT22;17114;52.314;8.910;2023-05-17T14:06:31;14.80;99.90
30308;DHT22;17114;52.314;8.910;2023-05-17T14:08:58;14.80;99.90
30308;DHT22;17114;52.314;8.910;2023-05-17T14:11:26;14.70;99.90
30308;DHT22;17114;52.314;8.910;2023-05-17T14:13:54;14.80;99.90
30308;DHT22;17114;52.314;8.910;2023-05-17T14:16:21;14.60;99.90
30308;DHT22;17114;52.314;8.910;2023-05-17T14:18:49;14.30;99.90
30308;DHT22;17114;52.314;8.910;2023-05-17T14:21:16;14.20;99.90
30308;DHT22;17114;52.314;8.910;2023-05-17T14:23:44;14.20;99.90
30308;DHT22;17114;52.314;8.910;2023-05-17T14:26:11;14.30;99.90
30308;DHT22;17114;52.314;8.910;2023-05-17T14:28:38;14.20;99.90
30308;DHT22;17114;52.314;8.910;2023-05-17T14:31:05;14.10;99.90
30308;DHT22;17114;52.314;8.910;2023-05-17T14:33:33;13.80;99.90
30308;DHT22;17114;52.314;8.910;2023-05-17T14:36:00;13.70;99.90
30308;DHT22;17114;52.314;8.910;2023-05-17T14:38:29;13.50;99.90
30308;DHT22;17114;52.314;8.910;2023-05-17T14:40:57;13.60;99.90
30308;DHT22;17114;52.314;8.910;2023-05-17T14:43:24;13.60;99.90
30308;DHT22;17114;52.314;8.910;2023-05-17T14:45:51;13.80;99.90
30308;DHT22;17114;52.314;8.910;2023-05-17T14:48:18;14.10;99.90
30308;DHT22;17114;52.314;8.910;2023-05-17T14:50:46;14.20;99.90
30308;DHT22;17114;52.314;8.910;2023-05-17T14:53:13;14.00;99.90
30308;DHT22;17114;52.314;8.910;2023-05-17T14:55:39;13.90;99.90
30308;DHT22;17114;52.314;8.910;2023-05-17T14:58:07;13.70;99.90
30308;DHT22;17114;52.314;8.910;2023-05-17T15:00:34;13.50;99.90
30308;DHT22;17114;52.314;8.910;2023-05-17T15:03:01;13.40;99.90
30308;DHT22;17114;52.314;8.910;2023-05-17T15:05:28;13.40;99.90
30308;DHT22;17114;52.314;8.910;2023-05-17T15:07:56;13.30;99.90
30308;DHT22;17114;52.314;8.910;2023-05-17T15:10:23;13.30;99.90
30308;DHT22;17114;52.314;8.910;2023-05-17T15:12:50;13.60;99.90
30308;DHT22;17114;52.314;8.910;2023-05-17T15:15:18;13.70;99.90
30308;DHT22;17114;52.314;8.910;2023-05-17T15:17:48;13.70;99.90
30308;DHT22;17114;52.314;8.910;2023-05-17T15:20:16;13.50;99.90
30308;DHT22;17114;52.314;8.910;2023-05-17T15:22:44;13.40;99.90
30308;DHT22;17114;52.314;8.910;2023-05-17T15:25:11;13.20;99.90
30308;DHT22;17114;52.314;8.910;2023-05-17T15:27:37;13.00;99.90
30308;DHT22;17114;52.314;8.910;2023-05-17T15:30:05;12.90;99.90
30308;DHT22;17114;52.314;8.910;2023-05-17T15:32:32;12.70;99.90
30308;DHT22;17114;52.314;8.910;2023-05-17T15:34:59;12.60;99.90
30308;DHT22;17114;52.314;8.910;2023-05-17T15:37:27;12.70;99.90
30308;DHT22;17114;52.314;8.910;2023-05-17T15:39:54;12.70;99.90
30308;DHT22;17114;52.314;8.910;2023-05-17T15:42:21;12.70;99.90
30308;DHT22;17114;52.314;8.910;2023-05-17T15:44:47;12.70;99.90
30308;DHT22;17114;52.314;8.910;2023-05-17T15:47:14;12.70;99.90
30308;DHT22;17114;52.314;8.910;2023-05-17T15:49:42;12.70;99.90
30308;DHT22;17114;52.314;8.910;2023-05-17T15:52:09;12.60;99.90
30308;DHT22;17114;52.314;8.910;2023-05-17T15:54:38;12.50;99.90
30308;DHT22;17114;52.314;8.910;2023-05-17T15:57:05;12.40;99.90
30308;DHT22;17114;52.314;8.910;2023-05-17T15:59:32;12.40;99.90
30308;DHT22;17114;52.314;8.910;2023-05-17T16:01:59;12.40;99.90
30308;DHT22;17114;52.314;8.910;2023-05-17T16:04:26;12.40;99.90